KAKR/AKR METAR and TAF weather

Enter ICAO airport designator
Station Type Date Time Source
KAKR METAR 2024/07/13 02:54 UTC NOAA

KAKR 130254Z AUTO 11005KT 7SM OVC095 26/18 A3015 RMK AO2 SLP200 T02560178 53006


Station Type Date Time Source
KAKR Decoded METAR 2024/07/13 02:54 UTC NOAA

AKRON FULTON INTERNATIONAL, OH, United States (KAKR) 41-02N 081-28W 363M
Jul 12, 2024 - 10:54 PM EDT / 2024.07.13 0254 UTC
Wind: from the ESE (110 degrees) at 6 MPH (5 KT):0
Visibility: 7 mile(s):0
Sky conditions: overcast
Temperature: 78.1 F (25.6 C)
Dew Point: 64.0 F (17.8 C)
Relative Humidity: 62%
Pressure (altimeter): 30.15 in. Hg (1020 hPa)
Pressure tendency: 0.02 inches (0.6 hPa) higher than three hours ago
ob: KAKR 130254Z AUTO 11005KT 7SM OVC095 26/18 A3015 RMK AO2 SLP200 T02560178 53006
cycle: 3

Station Type Date Time Source
KAKR TAF UTC NOAA

Error!

Example: see airport list